sensor_id;sensor_type;location;lat;lon;timestamp;temperature;humidity
9215;DHT22;4642;51.364;6.788;2022-12-18T00:01:30;-6.80;99.90
9215;DHT22;4642;51.364;6.788;2022-12-18T00:03:57;-6.70;99.90
9215;DHT22;4642;51.364;6.788;2022-12-18T00:06:24;-6.60;99.90
9215;DHT22;4642;51.364;6.788;2022-12-18T00:08:50;-6.60;99.90
9215;DHT22;4642;51.364;6.788;2022-12-18T00:11:18;-6.50;99.90
9215;DHT22;4642;51.364;6.788;2022-12-18T00:13:45;-6.40;99.90
9215;DHT22;4642;51.364;6.788;2022-12-18T00:16:17;-6.40;99.90
9215;DHT22;4642;51.364;6.788;2022-12-18T00:18:45;-6.30;99.90
9215;DHT22;4642;51.364;6.788;2022-12-18T00:21:13;-6.30;99.90
9215;DHT22;4642;51.364;6.788;2022-12-18T00:23:40;-6.30;99.90
9215;DHT22;4642;51.364;6.788;2022-12-18T00:26:12;-6.30;99.90
9215;DHT22;4642;51.364;6.788;2022-12-18T00:28:38;-6.20;99.90
9215;DHT22;4642;51.364;6.788;2022-12-18T00:31:06;-6.20;99.90
9215;DHT22;4642;51.364;6.788;2022-12-18T00:33:32;-6.20;99.90
9215;DHT22;4642;51.364;6.788;2022-12-18T00:36:02;-6.20;99.90
9215;DHT22;4642;51.364;6.788;2022-12-18T00:38:28;-6.10;99.90
9215;DHT22;4642;51.364;6.788;2022-12-18T00:40:53;-6.10;99.90
9215;DHT22;4642;51.364;6.788;2022-12-18T00:43:19;-6.10;99.90
9215;DHT22;4642;51.364;6.788;2022-12-18T00:45:45;-6.00;99.90
9215;DHT22;4642;51.364;6.788;2022-12-18T00:48:11;-6.00;99.90
9215;DHT22;4642;51.364;6.788;2022-12-18T00:50:36;-5.90;99.90
9215;DHT22;4642;51.364;6.788;2022-12-18T00:53:02;-5.90;99.90
9215;DHT22;4642;51.364;6.788;2022-12-18T00:55:27;-5.80;99.90
9215;DHT22;4642;51.364;6.788;2022-12-18T00:57:53;-5.70;99.90
9215;DHT22;4642;51.364;6.788;2022-12-18T01:00:18;-5.70;99.90
9215;DHT22;4642;51.364;6.788;2022-12-18T01:02:44;-5.60;99.90
9215;DHT22;4642;51.364;6.788;2022-12-18T01:05:11;-5.70;99.90
9215;DHT22;4642;51.364;6.788;2022-12-18T01:07:37;-5.70;99.90
9215;DHT22;4642;51.364;6.788;2022-12-18T01:10:03;-5.70;99.90
9215;DHT22;4642;51.364;6.788;2022-12-18T01:12:29;-5.70;99.90
9215;DHT22;4642;51.364;6.788;2022-12-18T01:14:55;-5.70;99.90
9215;DHT22;4642;51.364;6.788;2022-12-18T01:17:21;-5.70;99.90
9215;DHT22;4642;51.364;6.788;2022-12-18T01:19:47;-5.80;99.90
9215;DHT22;4642;51.364;6.788;2022-12-18T01:22:12;-5.80;99.90
9215;DHT22;4642;51.364;6.788;2022-12-18T01:24:38;-5.90;99.90
9215;DHT22;4642;51.364;6.788;2022-12-18T01:27:03;-5.80;99.90
9215;DHT22;4642;51.364;6.788;2022-12-18T01:29:29;-5.80;99.90
9215;DHT22;4642;51.364;6.788;2022-12-18T01:31:56;-5.80;99.90
9215;DHT22;4642;51.364;6.788;2022-12-18T01:34:22;-5.70;99.90
9215;DHT22;4642;51.364;6.788;2022-12-18T01:36:48;-5.70;99.90
9215;DHT22;4642;51.364;6.788;2022-12-18T01:39:14;-5.70;99.90
9215;DHT22;4642;51.364;6.788;2022-12-18T01:41:40;-5.60;99.90
9215;DHT22;4642;51.364;6.788;2022-12-18T01:47:52;-5.50;99.90
9215;DHT22;4642;51.364;6.788;2022-12-18T01:50:25;-5.50;99.90
9215;DHT22;4642;51.364;6.788;2022-12-18T01:52:55;-5.40;99.90
9215;DHT22;4642;51.364;6.788;2022-12-18T01:55:25;-5.40;99.90
9215;DHT22;4642;51.364;6.788;2022-12-18T01:57:54;-5.40;99.90
9215;DHT22;4642;51.364;6.788;2022-12-18T02:00:21;-5.30;99.90
9215;DHT22;4642;51.364;6.788;2022-12-18T02:02:48;-5.30;99.90
9215;DHT22;4642;51.364;6.788;2022-12-18T02:05:19;-5.20;99.90
9215;DHT22;4642;51.364;6.788;2022-12-18T02:08:16;-5.20;99.90
9215;DHT22;4642;51.364;6.788;2022-12-18T02:16:23;-5.20;99.90
9215;DHT22;4642;51.364;6.788;2022-12-18T02:18:54;-5.10;99.90
9215;DHT22;4642;51.364;6.788;2022-12-18T02:21:30;-5.10;99.90
9215;DHT22;4642;51.364;6.788;2022-12-18T02:24:09;-5.10;99.90
9215;DHT22;4642;51.364;6.788;2022-12-18T02:27:07;-5.10;99.90
9215;DHT22;4642;51.364;6.788;2022-12-18T02:32:03;-5.10;99.90
9215;DHT22;4642;51.364;6.788;2022-12-18T02:34:32;-5.10;99.90
9215;DHT22;4642;51.364;6.788;2022-12-18T02:37:00;-5.20;99.90
9215;DHT22;4642;51.364;6.788;2022-12-18T02:39:27;-5.10;99.90
9215;DHT22;4642;51.364;6.788;2022-12-18T02:41:54;-5.10;99.90
9215;DHT22;4642;51.364;6.788;2022-12-18T02:44:20;-5.10;99.90
9215;DHT22;4642;51.364;6.788;2022-12-18T02:46:49;-5.00;99.90
9215;DHT22;4642;51.364;6.788;2022-12-18T02:49:39;-5.10;99.90
9215;DHT22;4642;51.364;6.788;2022-12-18T02:52:25;-5.00;99.90
9215;DHT22;4642;51.364;6.788;2022-12-18T02:55:16;-5.00;99.90
9215;DHT22;4642;51.364;6.788;2022-12-18T02:58:10;-5.00;99.90
9215;DHT22;4642;51.364;6.788;2022-12-18T03:01:43;-5.00;99.90
9215;DHT22;4642;51.364;6.788;2022-12-18T03:03:55;-5.00;99.90
9215;DHT22;4642;51.364;6.788;2022-12-18T03:08:52;-4.90;99.90
9215;DHT22;4642;51.364;6.788;2022-12-18T03:11:18;-4.80;99.90
9215;DHT22;4642;51.364;6.788;2022-12-18T03:14:06;-4.80;99.90
9215;DHT22;4642;51.364;6.788;2022-12-18T03:16:33;-4.80;99.90
9215;DHT22;4642;51.364;6.788;2022-12-18T03:19:16;-4.80;99.90
9215;DHT22;4642;51.364;6.788;2022-12-18T03:21:46;-4.80;99.90
9215;DHT22;4642;51.364;6.788;2022-12-18T03:24:13;-4.80;99.90
9215;DHT22;4642;51.364;6.788;2022-12-18T03:26:44;-4.70;99.90
9215;DHT22;4642;51.364;6.788;2022-12-18T03:29:14;-4.70;99.90
9215;DHT22;4642;51.364;6.788;2022-12-18T03:31:48;-4.70;99.90
9215;DHT22;4642;51.364;6.788;2022-12-18T03:34:17;-4.80;99.90
9215;DHT22;4642;51.364;6.788;2022-12-18T03:36:45;-4.70;99.90
9215;DHT22;4642;51.364;6.788;2022-12-18T03:39:10;-4.70;99.90
9215;DHT22;4642;51.364;6.788;2022-12-18T03:41:58;-4.70;99.90
9215;DHT22;4642;51.364;6.788;2022-12-18T03:44:28;-4.70;99.90
9215;DHT22;4642;51.364;6.788;2022-12-18T03:47:04;-4.70;99.90
9215;DHT22;4642;51.364;6.788;2022-12-18T03:52:32;-4.70;99.90
9215;DHT22;4642;51.364;6.788;2022-12-18T03:55:02;-4.70;99.90
9215;DHT22;4642;51.364;6.788;2022-12-18T03:57:30;-4.60;99.90
9215;DHT22;4642;51.364;6.788;2022-12-18T04:00:23;-4.60;99.90
9215;DHT22;4642;51.364;6.788;2022-12-18T04:02:51;-4.60;99.90
9215;DHT22;4642;51.364;6.788;2022-12-18T04:05:19;-4.60;99.90
9215;DHT22;4642;51.364;6.788;2022-12-18T04:07:47;-4.60;99.90
9215;DHT22;4642;51.364;6.788;2022-12-18T04:10:14;-4.70;99.90
9215;DHT22;4642;51.364;6.788;2022-12-18T04:12:41;-4.70;99.90
9215;DHT22;4642;51.364;6.788;2022-12-18T04:15:07;-4.70;99.90
9215;DHT22;4642;51.364;6.788;2022-12-18T04:17:33;-4.80;99.90
9215;DHT22;4642;51.364;6.788;2022-12-18T04:19:58;-4.80;99.90
9215;DHT22;4642;51.364;6.788;2022-12-18T04:22:24;-4.90;99.90
9215;DHT22;4642;51.364;6.788;2022-12-18T04:24:49;-5.00;99.90
9215;DHT22;4642;51.364;6.788;2022-12-18T04:27:15;-5.00;99.90
9215;DHT22;4642;51.364;6.788;2022-12-18T04:29:40;-5.00;99.90
9215;DHT22;4642;51.364;6.788;2022-12-18T04:32:07;-5.10;99.90
9215;DHT22;4642;51.364;6.788;2022-12-18T04:34:32;-5.20;99.90
9215;DHT22;4642;51.364;6.788;2022-12-18T04:36:58;-5.30;99.90
9215;DHT22;4642;51.364;6.788;2022-12-18T04:39:23;-5.30;99.90
9215;DHT22;4642;51.364;6.788;2022-12-18T04:41:49;-5.30;99.90
9215;DHT22;4642;51.364;6.788;2022-12-18T04:44:14;-5.40;99.90
9215;DHT22;4642;51.364;6.788;2022-12-18T04:46:40;-5.50;99.90
9215;DHT22;4642;51.364;6.788;2022-12-18T04:49:05;-5.50;99.90
9215;DHT22;4642;51.364;6.788;2022-12-18T04:51:31;-5.60;99.90
9215;DHT22;4642;51.364;6.788;2022-12-18T04:53:56;-5.60;99.90
9215;DHT22;4642;51.364;6.788;2022-12-18T04:56:22;-5.70;99.90
9215;DHT22;4642;51.364;6.788;2022-12-18T04:58:48;-5.70;99.90
9215;DHT22;4642;51.364;6.788;2022-12-18T05:01:15;-5.80;99.90
9215;DHT22;4642;51.364;6.788;2022-12-18T05:03:41;-5.80;99.90
9215;DHT22;4642;51.364;6.788;2022-12-18T05:06:08;-5.80;99.90
9215;DHT22;4642;51.364;6.788;2022-12-18T05:08:34;-5.90;99.90
9215;DHT22;4642;51.364;6.788;2022-12-18T05:10:59;-5.90;99.90
9215;DHT22;4642;51.364;6.788;2022-12-18T05:13:26;-5.90;99.90
9215;DHT22;4642;51.364;6.788;2022-12-18T05:15:52;-6.00;99.90
9215;DHT22;4642;51.364;6.788;2022-12-18T05:18:17;-6.00;99.90
9215;DHT22;4642;51.364;6.788;2022-12-18T05:20:43;-6.10;99.90
9215;DHT22;4642;51.364;6.788;2022-12-18T05:23:08;-6.10;99.90
9215;DHT22;4642;51.364;6.788;2022-12-18T05:25:34;-6.10;99.90
9215;DHT22;4642;51.364;6.788;2022-12-18T05:27:59;-6.10;99.90
9215;DHT22;4642;51.364;6.788;2022-12-18T05:30:25;-6.20;99.90
9215;DHT22;4642;51.364;6.788;2022-12-18T05:32:51;-6.20;99.90
9215;DHT22;4642;51.364;6.788;2022-12-18T05:35:16;-6.20;99.90
9215;DHT22;4642;51.364;6.788;2022-12-18T05:37:42;-6.30;99.90
9215;DHT22;4642;51.364;6.788;2022-12-18T05:40:08;-6.30;99.90
9215;DHT22;4642;51.364;6.788;2022-12-18T05:42:33;-6.30;99.90
9215;DHT22;4642;51.364;6.788;2022-12-18T05:44:59;-6.30;99.90
9215;DHT22;4642;51.364;6.788;2022-12-18T05:47:24;-6.40;99.90
9215;DHT22;4642;51.364;6.788;2022-12-18T05:49:50;-6.40;99.90
9215;DHT22;4642;51.364;6.788;2022-12-18T05:52:15;-6.40;99.90
9215;DHT22;4642;51.364;6.788;2022-12-18T05:54:41;-6.40;99.90
9215;DHT22;4642;51.364;6.788;2022-12-18T05:57:06;-6.50;99.90
9215;DHT22;4642;51.364;6.788;2022-12-18T05:59:32;-6.50;99.90
9215;DHT22;4642;51.364;6.788;2022-12-18T06:01:58;-6.50;99.90
9215;DHT22;4642;51.364;6.788;2022-12-18T06:04:23;-6.50;99.90
9215;DHT22;4642;51.364;6.788;2022-12-18T06:06:49;-6.50;99.90
9215;DHT22;4642;51.364;6.788;2022-12-18T06:09:14;-6.50;99.90
9215;DHT22;4642;51.364;6.788;2022-12-18T06:11:40;-6.60;99.90
9215;DHT22;4642;51.364;6.788;2022-12-18T06:14:06;-6.60;99.90
9215;DHT22;4642;51.364;6.788;2022-12-18T06:16:32;-6.60;99.90
9215;DHT22;4642;51.364;6.788;2022-12-18T06:18:59;-6.60;99.90
9215;DHT22;4642;51.364;6.788;2022-12-18T06:21:26;-6.60;99.90
9215;DHT22;4642;51.364;6.788;2022-12-18T06:23:51;-6.60;99.90
9215;DHT22;4642;51.364;6.788;2022-12-18T06:26:17;-6.60;99.90
9215;DHT22;4642;51.364;6.788;2022-12-18T06:28:42;-6.60;99.90
9215;DHT22;4642;51.364;6.788;2022-12-18T06:31:09;-6.60;99.90
9215;DHT22;4642;51.364;6.788;2022-12-18T06:33:35;-6.60;99.90
9215;DHT22;4642;51.364;6.788;2022-12-18T06:36:06;-6.70;99.90
9215;DHT22;4642;51.364;6.788;2022-12-18T06:38:33;-6.70;99.90
9215;DHT22;4642;51.364;6.788;2022-12-18T06:40:59;-6.70;99.90
9215;DHT22;4642;51.364;6.788;2022-12-18T06:43:24;-6.80;99.90
9215;DHT22;4642;51.364;6.788;2022-12-18T06:45:50;-6.70;99.90
9215;DHT22;4642;51.364;6.788;2022-12-18T06:48:21;-6.80;99.90
9215;DHT22;4642;51.364;6.788;2022-12-18T06:50:46;-6.80;99.90
9215;DHT22;4642;51.364;6.788;2022-12-18T06:53:12;-6.80;99.90
9215;DHT22;4642;51.364;6.788;2022-12-18T06:55:38;-6.90;99.90
9215;DHT22;4642;51.364;6.788;2022-12-18T06:58:03;-6.90;99.90
9215;DHT22;4642;51.364;6.788;2022-12-18T07:00:29;-6.90;99.90
9215;DHT22;4642;51.364;6.788;2022-12-18T07:02:54;-6.90;99.90
9215;DHT22;4642;51.364;6.788;2022-12-18T07:05:20;-6.90;99.90
9215;DHT22;4642;51.364;6.788;2022-12-18T07:07:45;-6.90;99.90
9215;DHT22;4642;51.364;6.788;2022-12-18T07:10:11;-7.00;99.90
9215;DHT22;4642;51.364;6.788;2022-12-18T07:12:36;-6.90;99.90
9215;DHT22;4642;51.364;6.788;2022-12-18T07:15:02;-7.00;99.90
9215;DHT22;4642;51.364;6.788;2022-12-18T07:17:28;-7.00;99.90
9215;DHT22;4642;51.364;6.788;2022-12-18T07:19:54;-6.90;99.90
9215;DHT22;4642;51.364;6.788;2022-12-18T07:22:20;-6.90;99.90
9215;DHT22;4642;51.364;6.788;2022-12-18T07:24:50;-6.90;99.90
9215;DHT22;4642;51.364;6.788;2022-12-18T07:27:15;-6.90;99.90
9215;DHT22;4642;51.364;6.788;2022-12-18T07:29:41;-6.90;99.90
9215;DHT22;4642;51.364;6.788;2022-12-18T07:32:06;-6.80;99.90
9215;DHT22;4642;51.364;6.788;2022-12-18T07:34:32;-6.80;99.90
9215;DHT22;4642;51.364;6.788;2022-12-18T07:36:58;-6.70;99.90
9215;DHT22;4642;51.364;6.788;2022-12-18T07:39:23;-6.60;99.90
9215;DHT22;4642;51.364;6.788;2022-12-18T07:41:49;-6.50;99.90
9215;DHT22;4642;51.364;6.788;2022-12-18T07:44:34;-6.40;99.90
9215;DHT22;4642;51.364;6.788;2022-12-18T07:47:00;-6.20;99.90
9215;DHT22;4642;51.364;6.788;2022-12-18T07:49:26;-6.10;99.90
9215;DHT22;4642;51.364;6.788;2022-12-18T07:51:53;-5.90;99.90
9215;DHT22;4642;51.364;6.788;2022-12-18T07:54:19;-5.80;99.90
9215;DHT22;4642;51.364;6.788;2022-12-18T07:56:44;-5.60;99.90
9215;DHT22;4642;51.364;6.788;2022-12-18T07:59:10;-5.60;99.90
9215;DHT22;4642;51.364;6.788;2022-12-18T08:01:35;-5.40;99.90
9215;DHT22;4642;51.364;6.788;2022-12-18T08:04:01;-5.20;99.90
9215;DHT22;4642;51.364;6.788;2022-12-18T08:06:26;-5.10;99.90
9215;DHT22;4642;51.364;6.788;2022-12-18T08:08:53;-5.00;99.90
9215;DHT22;4642;51.364;6.788;2022-12-18T08:11:19;-4.90;99.90
9215;DHT22;4642;51.364;6.788;2022-12-18T08:13:44;-4.80;99.90
9215;DHT22;4642;51.364;6.788;2022-12-18T08:16:10;-4.70;99.90
9215;DHT22;4642;51.364;6.788;2022-12-18T08:18:36;-4.60;99.90
9215;DHT22;4642;51.364;6.788;2022-12-18T08:21:13;-4.50;99.90
9215;DHT22;4642;51.364;6.788;2022-12-18T08:23:40;-4.40;99.90
9215;DHT22;4642;51.364;6.788;2022-12-18T08:26:06;-4.30;99.90
9215;DHT22;4642;51.364;6.788;2022-12-18T08:28:32;-4.30;99.90
9215;DHT22;4642;51.364;6.788;2022-12-18T08:30:57;-4.20;99.90
9215;DHT22;4642;51.364;6.788;2022-12-18T08:33:23;-4.20;99.90
9215;DHT22;4642;51.364;6.788;2022-12-18T08:35:49;-4.10;99.90
9215;DHT22;4642;51.364;6.788;2022-12-18T08:38:14;-4.10;99.90
9215;DHT22;4642;51.364;6.788;2022-12-18T08:40:40;-4.10;99.90
9215;DHT22;4642;51.364;6.788;2022-12-18T08:43:07;-3.90;99.90
9215;DHT22;4642;51.364;6.788;2022-12-18T08:45:51;-3.90;99.90
9215;DHT22;4642;51.364;6.788;2022-12-18T08:48:16;-3.80;99.90
9215;DHT22;4642;51.364;6.788;2022-12-18T08:50:42;-3.70;99.90
9215;DHT22;4642;51.364;6.788;2022-12-18T08:53:07;-3.70;99.90
9215;DHT22;4642;51.364;6.788;2022-12-18T08:55:34;-3.60;99.90
9215;DHT22;4642;51.364;6.788;2022-12-18T08:58:00;-3.50;99.90
9215;DHT22;4642;51.364;6.788;2022-12-18T09:00:25;-3.40;99.90
9215;DHT22;4642;51.364;6.788;2022-12-18T09:02:51;-3.30;99.90
9215;DHT22;4642;51.364;6.788;2022-12-18T09:05:16;-3.20;99.90
9215;DHT22;4642;51.364;6.788;2022-12-18T09:07:42;-3.20;99.90
9215;DHT22;4642;51.364;6.788;2022-12-18T09:10:07;-3.10;99.90
9215;DHT22;4642;51.364;6.788;2022-12-18T09:12:33;-3.10;99.90
9215;DHT22;4642;51.364;6.788;2022-12-18T09:14:58;-3.00;99.90
9215;DHT22;4642;51.364;6.788;2022-12-18T09:17:24;-3.00;99.90
9215;DHT22;4642;51.364;6.788;2022-12-18T09:19:49;-2.90;99.90
9215;DHT22;4642;51.364;6.788;2022-12-18T09:22:15;-2.90;99.90
9215;DHT22;4642;51.364;6.788;2022-12-18T09:24:40;-2.80;99.90
9215;DHT22;4642;51.364;6.788;2022-12-18T09:27:06;-2.70;99.90
9215;DHT22;4642;51.364;6.788;2022-12-18T09:29:32;-2.70;99.90
9215;DHT22;4642;51.364;6.788;2022-12-18T09:31:58;-2.60;99.90
9215;DHT22;4642;51.364;6.788;2022-12-18T09:34:23;-2.50;99.90
9215;DHT22;4642;51.364;6.788;2022-12-18T09:36:49;-2.40;99.90
9215;DHT22;4642;51.364;6.788;2022-12-18T09:39:14;-2.40;99.90
9215;DHT22;4642;51.364;6.788;2022-12-18T09:49:42;-2.00;99.90
9215;DHT22;4642;51.364;6.788;2022-12-18T09:54:47;-1.80;99.90
9215;DHT22;4642;51.364;6.788;2022-12-18T09:57:20;-1.80;99.90
9215;DHT22;4642;51.364;6.788;2022-12-18T09:59:51;-1.70;99.90
9215;DHT22;4642;51.364;6.788;2022-12-18T10:02:23;-1.60;99.90
9215;DHT22;4642;51.364;6.788;2022-12-18T10:05:12;-1.60;99.90
9215;DHT22;4642;51.364;6.788;2022-12-18T10:10:52;-1.40;99.90
9215;DHT22;4642;51.364;6.788;2022-12-18T10:13:34;-1.30;99.90
9215;DHT22;4642;51.364;6.788;2022-12-18T10:16:22;-1.30;99.90
9215;DHT22;4642;51.364;6.788;2022-12-18T10:19:11;-1.20;99.90
9215;DHT22;4642;51.364;6.788;2022-12-18T10:22:18;-1.10;99.90
9215;DHT22;4642;51.364;6.788;2022-12-18T10:24:59;-1.00;99.90
9215;DHT22;4642;51.364;6.788;2022-12-18T10:27:28;-1.00;99.90
9215;DHT22;4642;51.364;6.788;2022-12-18T10:29:54;-0.90;99.90
9215;DHT22;4642;51.364;6.788;2022-12-18T10:32:22;-0.80;99.90
9215;DHT22;4642;51.364;6.788;2022-12-18T10:34:50;-0.70;99.90
9215;DHT22;4642;51.364;6.788;2022-12-18T10:37:19;-0.70;99.90
9215;DHT22;4642;51.364;6.788;2022-12-18T10:39:46;-0.60;99.90
9215;DHT22;4642;51.364;6.788;2022-12-18T10:42:18;-0.60;99.90
9215;DHT22;4642;51.364;6.788;2022-12-18T10:44:45;-0.50;99.90
9215;DHT22;4642;51.364;6.788;2022-12-18T10:47:14;-0.40;99.90
9215;DHT22;4642;51.364;6.788;2022-12-18T10:49:51;-0.40;99.90
9215;DHT22;4642;51.364;6.788;2022-12-18T10:52:22;-0.40;99.90
9215;DHT22;4642;51.364;6.788;2022-12-18T10:54:55;-0.30;99.90
9215;DHT22;4642;51.364;6.788;2022-12-18T10:59:57;-0.20;99.90
9215;DHT22;4642;51.364;6.788;2022-12-18T11:02:35;-0.10;99.90
9215;DHT22;4642;51.364;6.788;2022-12-18T11:05:02;-0.10;99.90
9215;DHT22;4642;51.364;6.788;2022-12-18T11:07:48;0.00;99.90
9215;DHT22;4642;51.364;6.788;2022-12-18T11:10:18;0.00;99.90
9215;DHT22;4642;51.364;6.788;2022-12-18T11:12:45;0.10;99.90
9215;DHT22;4642;51.364;6.788;2022-12-18T11:15:26;0.10;99.90
9215;DHT22;4642;51.364;6.788;2022-12-18T11:17:53;0.10;99.90
9215;DHT22;4642;51.364;6.788;2022-12-18T11:20:31;0.20;99.90
9215;DHT22;4642;51.364;6.788;2022-12-18T11:23:05;0.30;99.90
9215;DHT22;4642;51.364;6.788;2022-12-18T11:25:37;0.30;99.90
9215;DHT22;4642;51.364;6.788;2022-12-18T11:31:23;0.50;99.90
9215;DHT22;4642;51.364;6.788;2022-12-18T11:34:26;0.50;99.90
9215;DHT22;4642;51.364;6.788;2022-12-18T11:36:53;0.60;52.20
9215;DHT22;4642;51.364;6.788;2022-12-18T11:39:42;0.60;99.90
9215;DHT22;4642;51.364;6.788;2022-12-18T11:42:36;0.70;99.90
9215;DHT22;4642;51.364;6.788;2022-12-18T11:47:38;0.70;99.90
9215;DHT22;4642;51.364;6.788;2022-12-18T11:50:17;0.80;99.90
9215;DHT22;4642;51.364;6.788;2022-12-18T11:52:44;0.80;99.90
9215;DHT22;4642;51.364;6.788;2022-12-18T11:55:15;0.80;99.90
9215;DHT22;4642;51.364;6.788;2022-12-18T11:57:48;0.80;99.90
9215;DHT22;4642;51.364;6.788;2022-12-18T12:00:21;0.80;99.90
9215;DHT22;4642;51.364;6.788;2022-12-18T12:05:59;0.90;99.90
9215;DHT22;4642;51.364;6.788;2022-12-18T12:11:13;0.90;99.90
9215;DHT22;4642;51.364;6.788;2022-12-18T12:13:52;0.90;99.90
9215;DHT22;4642;51.364;6.788;2022-12-18T12:24:47;0.90;1.00
9215;DHT22;4642;51.364;6.788;2022-12-18T12:30:08;0.90;1.00
9215;DHT22;4642;51.364;6.788;2022-12-18T12:35:52;1.00;99.90
9215;DHT22;4642;51.364;6.788;2022-12-18T12:38:31;1.00;99.90
9215;DHT22;4642;51.364;6.788;2022-12-18T12:41:05;1.00;8.50
9215;DHT22;4642;51.364;6.788;2022-12-18T12:43:42;1.00;1.00
9215;DHT22;4642;51.364;6.788;2022-12-18T12:46:13;1.00;1.00
9215;DHT22;4642;51.364;6.788;2022-12-18T12:48:41;1.00;41.00
9215;DHT22;4642;51.364;6.788;2022-12-18T12:51:12;1.00;1.00
9215;DHT22;4642;51.364;6.788;2022-12-18T12:53:40;1.00;1.00
9215;DHT22;4642;51.364;6.788;2022-12-18T12:56:10;1.00;77.30
9215;DHT22;4642;51.364;6.788;2022-12-18T13:01:43;0.90;99.90
9215;DHT22;4642;51.364;6.788;2022-12-18T13:06:55;0.90;34.20
9215;DHT22;4642;51.364;6.788;2022-12-18T13:09:22;0.90;66.90
9215;DHT22;4642;51.364;6.788;2022-12-18T13:11:48;0.90;62.60
9215;DHT22;4642;51.364;6.788;2022-12-18T13:14:37;0.90;1.00
9215;DHT22;4642;51.364;6.788;2022-12-18T13:20:09;0.90;1.00
9215;DHT22;4642;51.364;6.788;2022-12-18T13:25:04;0.90;99.90
9215;DHT22;4642;51.364;6.788;2022-12-18T13:28:13;0.90;29.10
9215;DHT22;4642;51.364;6.788;2022-12-18T13:30:43;0.90;99.90
9215;DHT22;4642;51.364;6.788;2022-12-18T13:40:59;0.90;1.00
9215;DHT22;4642;51.364;6.788;2022-12-18T13:43:45;0.80;1.00
9215;DHT22;4642;51.364;6.788;2022-12-18T13:46:18;0.90;1.00
9215;DHT22;4642;51.364;6.788;2022-12-18T13:51:19;0.80;1.00
9215;DHT22;4642;51.364;6.788;2022-12-18T13:56:20;0.80;1.00
9215;DHT22;4642;51.364;6.788;2022-12-18T13:59:04;0.80;1.00
9215;DHT22;4642;51.364;6.788;2022-12-18T14:01:30;0.80;1.00
9215;DHT22;4642;51.364;6.788;2022-12-18T14:04:29;0.80;1.00
9215;DHT22;4642;51.364;6.788;2022-12-18T14:07:05;0.80;1.00
9215;DHT22;4642;51.364;6.788;2022-12-18T14:09:35;0.80;1.00
9215;DHT22;4642;51.364;6.788;2022-12-18T14:12:02;0.80;1.00
9215;DHT22;4642;51.364;6.788;2022-12-18T14:14:51;0.80;1.00
9215;DHT22;4642;51.364;6.788;2022-12-18T14:17:18;0.80;1.00
9215;DHT22;4642;51.364;6.788;2022-12-18T14:19:46;0.70;1.00
9215;DHT22;4642;51.364;6.788;2022-12-18T14:22:21;0.70;1.00
9215;DHT22;4642;51.364;6.788;2022-12-18T14:24:51;0.70;1.00
9215;DHT22;4642;51.364;6.788;2022-12-18T14:27:29;0.70;1.00
9215;DHT22;4642;51.364;6.788;2022-12-18T14:29:55;0.70;1.00
9215;DHT22;4642;51.364;6.788;2022-12-18T14:32:20;0.70;1.00
9215;DHT22;4642;51.364;6.788;2022-12-18T14:34:53;0.70;1.00
9215;DHT22;4642;51.364;6.788;2022-12-18T14:37:26;0.70;1.00
9215;DHT22;4642;51.364;6.788;2022-12-18T14:39:59;0.60;1.00
9215;DHT22;4642;51.364;6.788;2022-12-18T14:42:27;0.60;1.00
9215;DHT22;4642;51.364;6.788;2022-12-18T14:47:58;0.70;1.00
9215;DHT22;4642;51.364;6.788;2022-12-18T14:50:24;0.70;1.00
9215;DHT22;4642;51.364;6.788;2022-12-18T14:52:50;0.60;1.00
9215;DHT22;4642;51.364;6.788;2022-12-18T14:55:17;0.60;1.00
9215;DHT22;4642;51.364;6.788;2022-12-18T14:57:43;0.60;99.90
9215;DHT22;4642;51.364;6.788;2022-12-18T15:00:18;0.60;99.90
9215;DHT22;4642;51.364;6.788;2022-12-18T15:02:53;0.60;1.00
9215;DHT22;4642;51.364;6.788;2022-12-18T15:05:28;0.60;1.00
9215;DHT22;4642;51.364;6.788;2022-12-18T15:07:56;0.60;1.00
9215;DHT22;4642;51.364;6.788;2022-12-18T15:26:09;0.50;99.90
9215;DHT22;4642;51.364;6.788;2022-12-18T15:33:59;0.50;1.00
9215;DHT22;4642;51.364;6.788;2022-12-18T15:36:26;0.50;1.00
9215;DHT22;4642;51.364;6.788;2022-12-18T15:38:53;0.50;1.00
9215;DHT22;4642;51.364;6.788;2022-12-18T15:41:20;0.50;1.00
9215;DHT22;4642;51.364;6.788;2022-12-18T15:43:48;0.50;1.00
9215;DHT22;4642;51.364;6.788;2022-12-18T15:46:19;0.40;1.00
9215;DHT22;4642;51.364;6.788;2022-12-18T15:48:47;0.40;1.00
9215;DHT22;4642;51.364;6.788;2022-12-18T15:51:23;0.40;1.00
9215;DHT22;4642;51.364;6.788;2022-12-18T15:53:52;0.40;1.00
9215;DHT22;4642;51.364;6.788;2022-12-18T15:56:19;0.40;1.00
9215;DHT22;4642;51.364;6.788;2022-12-18T15:59:24;0.40;1.00
9215;DHT22;4642;51.364;6.788;2022-12-18T16:01:51;0.40;1.00
9215;DHT22;4642;51.364;6.788;2022-12-18T16:04:19;0.40;1.00
9215;DHT22;4642;51.364;6.788;2022-12-18T16:06:46;0.40;1.00
9215;DHT22;4642;51.364;6.788;2022-12-18T16:09:12;0.40;1.00
9215;DHT22;4642;51.364;6.788;2022-12-18T16:11:39;0.40;1.00
9215;DHT22;4642;51.364;6.788;2022-12-18T16:14:18;0.40;1.00
9215;DHT22;4642;51.364;6.788;2022-12-18T16:16:48;0.40;36.80
9215;DHT22;4642;51.364;6.788;2022-12-18T16:19:15;0.30;52.30
9215;DHT22;4642;51.364;6.788;2022-12-18T16:21:41;0.40;92.70
9215;DHT22;4642;51.364;6.788;2022-12-18T16:24:20;0.30;99.90
9215;DHT22;4642;51.364;6.788;2022-12-18T16:26:48;0.30;99.90
9215;DHT22;4642;51.364;6.788;2022-12-18T16:29:14;0.30;99.90
9215;DHT22;4642;51.364;6.788;2022-12-18T16:31:40;0.30;99.90
9215;DHT22;4642;51.364;6.788;2022-12-18T16:34:29;0.30;99.90
9215;DHT22;4642;51.364;6.788;2022-12-18T16:36:57;0.30;99.90
9215;DHT22;4642;51.364;6.788;2022-12-18T16:39:23;0.30;99.90
9215;DHT22;4642;51.364;6.788;2022-12-18T16:41:49;0.30;99.90
9215;DHT22;4642;51.364;6.788;2022-12-18T16:44:15;0.30;99.90
9215;DHT22;4642;51.364;6.788;2022-12-18T16:46:40;0.30;99.90
9215;DHT22;4642;51.364;6.788;2022-12-18T16:49:08;0.30;99.90
9215;DHT22;4642;51.364;6.788;2022-12-18T16:51:34;0.30;99.90
9215;DHT22;4642;51.364;6.788;2022-12-18T16:53:59;0.30;1.00
9215;DHT22;4642;51.364;6.788;2022-12-18T16:56:25;0.30;1.00
9215;DHT22;4642;51.364;6.788;2022-12-18T16:58:55;0.30;1.00
9215;DHT22;4642;51.364;6.788;2022-12-18T17:01:22;0.20;1.00
9215;DHT22;4642;51.364;6.788;2022-12-18T17:04:01;0.20;1.00
9215;DHT22;4642;51.364;6.788;2022-12-18T17:06:29;0.20;1.00
9215;DHT22;4642;51.364;6.788;2022-12-18T17:08:56;0.30;1.00
9215;DHT22;4642;51.364;6.788;2022-12-18T17:11:23;0.20;1.00
9215;DHT22;4642;51.364;6.788;2022-12-18T17:13:49;0.20;1.00
9215;DHT22;4642;51.364;6.788;2022-12-18T17:16:15;0.10;1.00
9215;DHT22;4642;51.364;6.788;2022-12-18T17:18:42;0.20;31.00
9215;DHT22;4642;51.364;6.788;2022-12-18T17:21:09;0.10;77.60
9215;DHT22;4642;51.364;6.788;2022-12-18T17:23:35;0.10;93.80
9215;DHT22;4642;51.364;6.788;2022-12-18T17:26:02;0.10;99.90
9215;DHT22;4642;51.364;6.788;2022-12-18T17:28:29;0.10;99.90
9215;DHT22;4642;51.364;6.788;2022-12-18T17:30:55;0.10;99.90
9215;DHT22;4642;51.364;6.788;2022-12-18T17:33:22;0.10;99.90
9215;DHT22;4642;51.364;6.788;2022-12-18T17:35:47;0.10;99.90
9215;DHT22;4642;51.364;6.788;2022-12-18T17:38:13;0.10;99.90
9215;DHT22;4642;51.364;6.788;2022-12-18T17:40:39;0.10;99.90
9215;DHT22;4642;51.364;6.788;2022-12-18T17:43:06;0.30;99.90
9215;DHT22;4642;51.364;6.788;2022-12-18T17:45:35;0.10;99.90
9215;DHT22;4642;51.364;6.788;2022-12-18T17:48:02;0.10;99.90
9215;DHT22;4642;51.364;6.788;2022-12-18T17:50:27;0.10;99.90
9215;DHT22;4642;51.364;6.788;2022-12-18T17:52:58;0.10;99.90
9215;DHT22;4642;51.364;6.788;2022-12-18T17:55:24;0.10;99.90
9215;DHT22;4642;51.364;6.788;2022-12-18T17:57:49;0.10;99.90
9215;DHT22;4642;51.364;6.788;2022-12-18T18:00:15;0.10;99.90
9215;DHT22;4642;51.364;6.788;2022-12-18T18:02:41;0.10;99.90
9215;DHT22;4642;51.364;6.788;2022-12-18T18:05:07;0.10;99.90
9215;DHT22;4642;51.364;6.788;2022-12-18T18:07:33;0.10;99.90
9215;DHT22;4642;51.364;6.788;2022-12-18T18:09:58;0.10;99.90
9215;DHT22;4642;51.364;6.788;2022-12-18T18:12:24;0.10;1.00